Pittsburgh, PA (15208)

11:27 PM EST on December 22, 2014 (GMT -0500)
Bakery Square - 'sliberty | Change Station
CLOSE
Current Station
Personal Weather Station
Location: Pittsburgh, PA
Elevation: 961 ft
Nearby Weather Stations

Elev 961 ft 40.46 °N, 79.92 °W | Updated 1 minute ago

Partly Cloudy
Partly Cloudy
40.5 °F
Feels Like 37 °F
N
4.7
Wind Variable Wind from East

Today
High -- | Low -- °F
--% Chance of Precip.
Yesterday
High -- | Low -- °F
Precip. -- in
7:39 AM 4:56 PM
New Moon, 2% visible
Pressure 29.99 in
Visibility 10.0 miles
Clouds Scattered Clouds 12000 ft
Windchill 37 °F
Dew Point 35 °F
Humidity 80%
Rainfall 0.00 in
Snow Depth Not available.
UV 0 out of 12
Pollen .10 out of 12
Air Quality Not available.
Flu Activity Not available.
METAR KAGC 230353Z AUTO 12005KT 10SM SCT120 04/M01 A2994 RMK AO2 SLP153 T00391011 TSNO

More Conditions Fewer Conditions

Pressure 29.99 in
Visibility 10.0 miles
Clouds Scattered Clouds 12000 ft
Windchill 37 °F
Dew Point 35 °F
Humidity 80%
Rainfall 0.00 in
Snow Depth Not available.
UV 0 out of 12
Pollen .10 out of 12
Air Quality Not available.
Flu Activity Not available.
METAR KAGC 230353Z AUTO 12005KT 10SM SCT120 04/M01 A2994 RMK AO2 SLP153 T00391011 TSNO

More Conditions Fewer Conditions

10-Day Weather Forecast

Almanac

Astronomy

Dec. 22, 2014 Rise Set
Actual Time
Civil Twilight
Nautical Twilight
Astronomical Twilight
Moon
Length of Visible Light
Length of Day
Tomorrow will be .
, % of the Moon is Illuminated

Today's Extremes

State Highs State Lows

Community

WunderPhotos

Upload Photos

1,779,776 photos uploaded!

WunderBlogs® & News

Nearby

Air Quality

  Air Quality AQ Index Pollutant
Not available.

Snow Depth

Station Depth Elevation

Earthquake Activity

City Distance Mag. Time & Date
Minimum magnitude displayed is 2.5.

Coastal Water Temperatures

Place Temperature

Nearby Weather Stations